Airfield :
LOGIN :

Register | Disclaimer

   EN    FR    IT 

 










Legend :    VFR   Marginal VFR   IFR   Intensive IFR   Very Intensive IFR
Visi :
Ceiling :
>= 8 km
>= 3000ft
5 to 8 km
1000 to 3000 ft
1500m to 5 km
500 to 1000 ft
800 to 1500m
200 to 500 ft
< 800m
< 200 ft
Symbols :   Thunderstorms  Fog  Heavy snow  Heavy precipitations  Wind > 20 kt
SIGMETs :     Misc.  Thunderstorms  Icing  Turbulence  Mountain Waves  Volcanic Ashes






- Airport Elevation : 461 ft
- IATA code : WIE


ETOU - Wiesbaden Army

CURRENT METAR :
  • 221008Z 06006KT 9999 -RA FEW026 OVC032 17/12 A2994 RMK AO2A RAB08 SLP139 $

EXPIRED METARs :
  • 220956Z 07006KT 9999 FEW025 OVC032 17/12 A2994 RMK AO2A SLP139 T01740119 $
  • 220936Z 07005KT 9999 SCT023 OVC032 18/12 A2993 RMK AO2A SLP135 $
  • 220921Z 07007KT 9999 BKN023 BKN033 18/12 A2993 RMK AO2A CIG 023V033 SLP135 $
  • 220856Z 06008KT 9999 BKN035 18/12 A2993 RMK AO2A SLP135 T01750122 53005 $
  • 220756Z 07007KT 9999 SCT045 BKN060 17/12 A2993 RMK AO2A SLP135 T01720119 $
  • 220721Z 06009KT 9999 BKN030 17/12 A2992 RMK AO2A SLP131 $

TAF AMD TAF ETOU
Valid from the 22 at 10:00 until the 23 at 10:00 UTC


221007Z 2210/2310 04009KT 9000 -SHRA BKN030 OVC040 QNH2992INS
BECMG 2213/2214 02005KT 9000 -SHRA BKN030 OVC040 QNH2994INS
BECMG 2221/2222 02005KT 9000 -SHRA SCT010 BKN020 OVC035 QNH2997INS
BECMG 2302/2303 01003KT 9999 NSW FEW005 BKN010 QNH3004INS TX22/2214Z TN16/2304Z



MET'MAP, your aeronautical weather chart ! - Copyright ORBIFLY December 2007 - Disclaimer

ORBIFLY MET'MAP TEAM :

Programming & Development : Alexandra Zaïnal
Concept & original design : Baudouin d'Aumeries
Assistance for programming : Marc-Olivier Méhu
Technical & hardware support : Manuel Goepfert

Contact : metmap@orbifly.com




SOURCES & CREDITS :

   NOAA